Webcam Flughafen St.Gallen-Altenrhein

Live-Bilder und Zeitraffer LSZR / ACH.

 

Live aus Altenrhein
LIVE
LSZR 210250Z AUTO VRB02KT 5000 BKN055 14/14 Q1016
Zeitraffer heute
2020-09-21 00:14:58
LSZR 202150Z AUTO VRB01KT CAVOK 17/16 Q1015